<?xml version="1.0" encoding="UTF-8" standalone="no" ?>
<gpx xmlns="http://www.topografix.com/GPX/1/1" xmlns:xsi="http://www.w3.org/2001/XMLSchema-instance" xsi:schemaLocation="http://www.topografix.com/GPX/1/1 http://www.topografix.com/GPX/1/1/gpx.xsd" version="1.1" creator="VisuGPX - https://www.visugpx.com">
  <metadata>
    <name>19 km Lucas 2024</name>
  </metadata>
  <trk>
    <name><![CDATA[19,11 km Lucas 2024-17860372]]></name>
    <trkseg>
      <trkpt lat="45.61928" lon="4.42631">
        <ele>484</ele>
        <time>2024-04-26T16:23:29Z</time>
      </trkpt>
      <trkpt lat="45.61926" lon="4.4259">
        <ele>478</ele>
        <time>2024-04-26T16:24:07Z</time>
      </trkpt>
      <trkpt lat="45.61919" lon="4.42578">
        <ele>478</ele>
        <time>2024-04-26T16:24:22Z</time>
      </trkpt>
      <trkpt lat="45.61884" lon="4.42554">
        <ele>478</ele>
        <time>2024-04-26T16:25:14Z</time>
      </trkpt>
      <trkpt lat="45.61856" lon="4.42547">
        <ele>479</ele>
        <time>2024-04-26T16:25:52Z</time>
      </trkpt>
      <trkpt lat="45.61824" lon="4.4253">
        <ele>479</ele>
        <time>2024-04-26T16:26:37Z</time>
      </trkpt>
      <trkpt lat="45.61788" lon="4.425">
        <ele>478</ele>
        <time>2024-04-26T16:27:33Z</time>
      </trkpt>
      <trkpt lat="45.61779" lon="4.42499">
        <ele>478</ele>
        <time>2024-04-26T16:27:45Z</time>
      </trkpt>
      <trkpt lat="45.61783" lon="4.425">
        <ele>478</ele>
        <time>2024-04-26T16:27:50Z</time>
      </trkpt>
      <trkpt lat="45.61789" lon="4.42522">
        <ele>479</ele>
        <time>2024-04-26T16:28:12Z</time>
      </trkpt>
      <trkpt lat="45.61808" lon="4.42628">
        <ele>488</ele>
        <time>2024-04-26T16:29:54Z</time>
      </trkpt>
      <trkpt lat="45.61798" lon="4.42657">
        <ele>491</ele>
        <time>2024-04-26T16:30:25Z</time>
      </trkpt>
      <trkpt lat="45.61766" lon="4.42688">
        <ele>494</ele>
        <time>2024-04-26T16:31:16Z</time>
      </trkpt>
      <trkpt lat="45.61755" lon="4.42706">
        <ele>496</ele>
        <time>2024-04-26T16:31:39Z</time>
      </trkpt>
      <trkpt lat="45.61732" lon="4.42785">
        <ele>501</ele>
        <time>2024-04-26T16:32:58Z</time>
      </trkpt>
      <trkpt lat="45.61731" lon="4.42829">
        <ele>505</ele>
        <time>2024-04-26T16:33:40Z</time>
      </trkpt>
      <trkpt lat="45.61759" lon="4.42899">
        <ele>509</ele>
        <time>2024-04-26T16:34:55Z</time>
      </trkpt>
      <trkpt lat="45.61784" lon="4.42938">
        <ele>514</ele>
        <time>2024-04-26T16:35:44Z</time>
      </trkpt>
      <trkpt lat="45.61759" lon="4.43018">
        <ele>518</ele>
        <time>2024-04-26T16:37:06Z</time>
      </trkpt>
      <trkpt lat="45.61742" lon="4.431">
        <ele>524</ele>
        <time>2024-04-26T16:38:26Z</time>
      </trkpt>
      <trkpt lat="45.61742" lon="4.43169">
        <ele>534</ele>
        <time>2024-04-26T16:39:30Z</time>
      </trkpt>
      <trkpt lat="45.61748" lon="4.43201">
        <ele>538</ele>
        <time>2024-04-26T16:40:01Z</time>
      </trkpt>
      <trkpt lat="45.61748" lon="4.4325">
        <ele>545</ele>
        <time>2024-04-26T16:40:47Z</time>
      </trkpt>
      <trkpt lat="45.61741" lon="4.43337">
        <ele>555</ele>
        <time>2024-04-26T16:42:09Z</time>
      </trkpt>
      <trkpt lat="45.61735" lon="4.43358">
        <ele>557</ele>
        <time>2024-04-26T16:42:30Z</time>
      </trkpt>
      <trkpt lat="45.61723" lon="4.43378">
        <ele>560</ele>
        <time>2024-04-26T16:42:54Z</time>
      </trkpt>
      <trkpt lat="45.61712" lon="4.4344">
        <ele>567</ele>
        <time>2024-04-26T16:43:54Z</time>
      </trkpt>
      <trkpt lat="45.6169" lon="4.43484">
        <ele>572</ele>
        <time>2024-04-26T16:44:45Z</time>
      </trkpt>
      <trkpt lat="45.61656" lon="4.43601">
        <ele>581</ele>
        <time>2024-04-26T16:46:43Z</time>
      </trkpt>
      <trkpt lat="45.61632" lon="4.43653">
        <ele>587</ele>
        <time>2024-04-26T16:47:41Z</time>
      </trkpt>
      <trkpt lat="45.61618" lon="4.43674">
        <ele>590</ele>
        <time>2024-04-26T16:48:08Z</time>
      </trkpt>
      <trkpt lat="45.61607" lon="4.43703">
        <ele>592</ele>
        <time>2024-04-26T16:48:39Z</time>
      </trkpt>
      <trkpt lat="45.6157" lon="4.4375">
        <ele>596</ele>
        <time>2024-04-26T16:49:45Z</time>
      </trkpt>
      <trkpt lat="45.61526" lon="4.43788">
        <ele>598</ele>
        <time>2024-04-26T16:50:53Z</time>
      </trkpt>
      <trkpt lat="45.61504" lon="4.43792">
        <ele>599</ele>
        <time>2024-04-26T16:51:23Z</time>
      </trkpt>
      <trkpt lat="45.61494" lon="4.43805">
        <ele>600</ele>
        <time>2024-04-26T16:51:41Z</time>
      </trkpt>
      <trkpt lat="45.61484" lon="4.4381">
        <ele>600</ele>
        <time>2024-04-26T16:51:55Z</time>
      </trkpt>
      <trkpt lat="45.61476" lon="4.43831">
        <ele>600</ele>
        <time>2024-04-26T16:52:18Z</time>
      </trkpt>
      <trkpt lat="45.61455" lon="4.43858">
        <ele>601</ele>
        <time>2024-04-26T16:52:55Z</time>
      </trkpt>
      <trkpt lat="45.61451" lon="4.4387">
        <ele>602</ele>
        <time>2024-04-26T16:53:08Z</time>
      </trkpt>
      <trkpt lat="45.61453" lon="4.43881">
        <ele>602</ele>
        <time>2024-04-26T16:53:18Z</time>
      </trkpt>
      <trkpt lat="45.6147" lon="4.43874">
        <ele>602</ele>
        <time>2024-04-26T16:53:42Z</time>
      </trkpt>
      <trkpt lat="45.61483" lon="4.4388">
        <ele>603</ele>
        <time>2024-04-26T16:54:00Z</time>
      </trkpt>
      <trkpt lat="45.61497" lon="4.43903">
        <ele>603</ele>
        <time>2024-04-26T16:54:29Z</time>
      </trkpt>
      <trkpt lat="45.61513" lon="4.43959">
        <ele>604</ele>
        <time>2024-04-26T16:55:25Z</time>
      </trkpt>
      <trkpt lat="45.61531" lon="4.44064">
        <ele>603</ele>
        <time>2024-04-26T16:57:06Z</time>
      </trkpt>
      <trkpt lat="45.61531" lon="4.44109">
        <ele>602</ele>
        <time>2024-04-26T16:57:48Z</time>
      </trkpt>
      <trkpt lat="45.61527" lon="4.44126">
        <ele>602</ele>
        <time>2024-04-26T16:58:05Z</time>
      </trkpt>
      <trkpt lat="45.61471" lon="4.44225">
        <ele>604</ele>
        <time>2024-04-26T17:00:04Z</time>
      </trkpt>
      <trkpt lat="45.61452" lon="4.44249">
        <ele>604</ele>
        <time>2024-04-26T17:00:37Z</time>
      </trkpt>
      <trkpt lat="45.6145" lon="4.44256">
        <ele>603</ele>
        <time>2024-04-26T17:00:44Z</time>
      </trkpt>
      <trkpt lat="45.61455" lon="4.44267">
        <ele>602</ele>
        <time>2024-04-26T17:00:57Z</time>
      </trkpt>
      <trkpt lat="45.61488" lon="4.44307">
        <ele>596</ele>
        <time>2024-04-26T17:01:54Z</time>
      </trkpt>
      <trkpt lat="45.61501" lon="4.44335">
        <ele>594</ele>
        <time>2024-04-26T17:02:26Z</time>
      </trkpt>
      <trkpt lat="45.61536" lon="4.44372">
        <ele>585</ele>
        <time>2024-04-26T17:03:24Z</time>
      </trkpt>
      <trkpt lat="45.61563" lon="4.44381">
        <ele>581</ele>
        <time>2024-04-26T17:04:01Z</time>
      </trkpt>
      <trkpt lat="45.61588" lon="4.44397">
        <ele>576</ele>
        <time>2024-04-26T17:04:37Z</time>
      </trkpt>
      <trkpt lat="45.61613" lon="4.44423">
        <ele>567</ele>
        <time>2024-04-26T17:05:19Z</time>
      </trkpt>
      <trkpt lat="45.61624" lon="4.44451">
        <ele>561</ele>
        <time>2024-04-26T17:05:49Z</time>
      </trkpt>
      <trkpt lat="45.61633" lon="4.44462">
        <ele>558</ele>
        <time>2024-04-26T17:06:04Z</time>
      </trkpt>
      <trkpt lat="45.61672" lon="4.4449">
        <ele>549</ele>
        <time>2024-04-26T17:07:03Z</time>
      </trkpt>
      <trkpt lat="45.61709" lon="4.445">
        <ele>544</ele>
        <time>2024-04-26T17:07:53Z</time>
      </trkpt>
      <trkpt lat="45.61718" lon="4.44498">
        <ele>543</ele>
        <time>2024-04-26T17:08:05Z</time>
      </trkpt>
      <trkpt lat="45.61733" lon="4.44487">
        <ele>541</ele>
        <time>2024-04-26T17:08:28Z</time>
      </trkpt>
      <trkpt lat="45.61754" lon="4.44463">
        <ele>536</ele>
        <time>2024-04-26T17:09:03Z</time>
      </trkpt>
      <trkpt lat="45.61766" lon="4.44455">
        <ele>533</ele>
        <time>2024-04-26T17:09:21Z</time>
      </trkpt>
      <trkpt lat="45.61794" lon="4.44446">
        <ele>527</ele>
        <time>2024-04-26T17:09:59Z</time>
      </trkpt>
      <trkpt lat="45.61808" lon="4.44451">
        <ele>523</ele>
        <time>2024-04-26T17:10:19Z</time>
      </trkpt>
      <trkpt lat="45.61824" lon="4.44479">
        <ele>519</ele>
        <time>2024-04-26T17:10:52Z</time>
      </trkpt>
      <trkpt lat="45.61806" lon="4.44515">
        <ele>521</ele>
        <time>2024-04-26T17:11:34Z</time>
      </trkpt>
      <trkpt lat="45.61783" lon="4.44538">
        <ele>525</ele>
        <time>2024-04-26T17:12:11Z</time>
      </trkpt>
      <trkpt lat="45.6176" lon="4.44592">
        <ele>525</ele>
        <time>2024-04-26T17:13:10Z</time>
      </trkpt>
      <trkpt lat="45.61749" lon="4.44635">
        <ele>521</ele>
        <time>2024-04-26T17:13:53Z</time>
      </trkpt>
      <trkpt lat="45.61743" lon="4.44713">
        <ele>513</ele>
        <time>2024-04-26T17:15:06Z</time>
      </trkpt>
      <trkpt lat="45.6172" lon="4.44772">
        <ele>511</ele>
        <time>2024-04-26T17:16:09Z</time>
      </trkpt>
      <trkpt lat="45.61694" lon="4.44799">
        <ele>511</ele>
        <time>2024-04-26T17:16:52Z</time>
      </trkpt>
      <trkpt lat="45.61654" lon="4.44805">
        <ele>513</ele>
        <time>2024-04-26T17:17:46Z</time>
      </trkpt>
      <trkpt lat="45.61633" lon="4.44818">
        <ele>513</ele>
        <time>2024-04-26T17:18:16Z</time>
      </trkpt>
      <trkpt lat="45.61629" lon="4.44825">
        <ele>513</ele>
        <time>2024-04-26T17:18:25Z</time>
      </trkpt>
      <trkpt lat="45.61629" lon="4.44832">
        <ele>513</ele>
        <time>2024-04-26T17:18:31Z</time>
      </trkpt>
      <trkpt lat="45.61653" lon="4.44861">
        <ele>511</ele>
        <time>2024-04-26T17:19:13Z</time>
      </trkpt>
      <trkpt lat="45.61647" lon="4.449">
        <ele>511</ele>
        <time>2024-04-26T17:19:50Z</time>
      </trkpt>
      <trkpt lat="45.6163" lon="4.44939">
        <ele>514</ele>
        <time>2024-04-26T17:20:33Z</time>
      </trkpt>
      <trkpt lat="45.61611" lon="4.44965">
        <ele>516</ele>
        <time>2024-04-26T17:21:08Z</time>
      </trkpt>
      <trkpt lat="45.61596" lon="4.45008">
        <ele>516</ele>
        <time>2024-04-26T17:21:53Z</time>
      </trkpt>
      <trkpt lat="45.61583" lon="4.45024">
        <ele>516</ele>
        <time>2024-04-26T17:22:16Z</time>
      </trkpt>
      <trkpt lat="45.61575" lon="4.45045">
        <ele>516</ele>
        <time>2024-04-26T17:22:39Z</time>
      </trkpt>
      <trkpt lat="45.61559" lon="4.45069">
        <ele>517</ele>
        <time>2024-04-26T17:23:09Z</time>
      </trkpt>
      <trkpt lat="45.6152" lon="4.45165">
        <ele>515</ele>
        <time>2024-04-26T17:24:53Z</time>
      </trkpt>
      <trkpt lat="45.61523" lon="4.45185">
        <ele>515</ele>
        <time>2024-04-26T17:25:12Z</time>
      </trkpt>
      <trkpt lat="45.61532" lon="4.45204">
        <ele>514</ele>
        <time>2024-04-26T17:25:34Z</time>
      </trkpt>
      <trkpt lat="45.61541" lon="4.45219">
        <ele>513</ele>
        <time>2024-04-26T17:25:52Z</time>
      </trkpt>
      <trkpt lat="45.6156" lon="4.45232">
        <ele>511</ele>
        <time>2024-04-26T17:26:20Z</time>
      </trkpt>
      <trkpt lat="45.61557" lon="4.45247">
        <ele>511</ele>
        <time>2024-04-26T17:26:35Z</time>
      </trkpt>
      <trkpt lat="45.61547" lon="4.45271">
        <ele>513</ele>
        <time>2024-04-26T17:27:01Z</time>
      </trkpt>
      <trkpt lat="45.61514" lon="4.45291">
        <ele>516</ele>
        <time>2024-04-26T17:27:49Z</time>
      </trkpt>
      <trkpt lat="45.61495" lon="4.45308">
        <ele>519</ele>
        <time>2024-04-26T17:28:19Z</time>
      </trkpt>
      <trkpt lat="45.61459" lon="4.45315">
        <ele>523</ele>
        <time>2024-04-26T17:29:07Z</time>
      </trkpt>
      <trkpt lat="45.61448" lon="4.45325">
        <ele>525</ele>
        <time>2024-04-26T17:29:24Z</time>
      </trkpt>
      <trkpt lat="45.61444" lon="4.4532">
        <ele>525</ele>
        <time>2024-04-26T17:29:32Z</time>
      </trkpt>
      <trkpt lat="45.61443" lon="4.4534">
        <ele>525</ele>
        <time>2024-04-26T17:29:50Z</time>
      </trkpt>
      <trkpt lat="45.6142" lon="4.45372">
        <ele>525</ele>
        <time>2024-04-26T17:30:33Z</time>
      </trkpt>
      <trkpt lat="45.61381" lon="4.45411">
        <ele>526</ele>
        <time>2024-04-26T17:31:37Z</time>
      </trkpt>
      <trkpt lat="45.6134" lon="4.45438">
        <ele>528</ele>
        <time>2024-04-26T17:32:37Z</time>
      </trkpt>
      <trkpt lat="45.61317" lon="4.45447">
        <ele>528</ele>
        <time>2024-04-26T17:33:09Z</time>
      </trkpt>
      <trkpt lat="45.61304" lon="4.45466">
        <ele>527</ele>
        <time>2024-04-26T17:33:33Z</time>
      </trkpt>
      <trkpt lat="45.61284" lon="4.4546">
        <ele>529</ele>
        <time>2024-04-26T17:34:01Z</time>
      </trkpt>
      <trkpt lat="45.61257" lon="4.45431">
        <ele>533</ele>
        <time>2024-04-26T17:34:46Z</time>
      </trkpt>
      <trkpt lat="45.61247" lon="4.45428">
        <ele>534</ele>
        <time>2024-04-26T17:34:59Z</time>
      </trkpt>
      <trkpt lat="45.61222" lon="4.4543">
        <ele>534</ele>
        <time>2024-04-26T17:35:33Z</time>
      </trkpt>
      <trkpt lat="45.61176" lon="4.45451">
        <ele>533</ele>
        <time>2024-04-26T17:36:37Z</time>
      </trkpt>
      <trkpt lat="45.61141" lon="4.4548">
        <ele>534</ele>
        <time>2024-04-26T17:37:31Z</time>
      </trkpt>
      <trkpt lat="45.61089" lon="4.45545">
        <ele>532</ele>
        <time>2024-04-26T17:39:03Z</time>
      </trkpt>
      <trkpt lat="45.61034" lon="4.45586">
        <ele>536</ele>
        <time>2024-04-26T17:40:26Z</time>
      </trkpt>
      <trkpt lat="45.60991" lon="4.45631">
        <ele>536</ele>
        <time>2024-04-26T17:41:37Z</time>
      </trkpt>
      <trkpt lat="45.60968" lon="4.45648">
        <ele>535</ele>
        <time>2024-04-26T17:42:12Z</time>
      </trkpt>
      <trkpt lat="45.60961" lon="4.45658">
        <ele>533</ele>
        <time>2024-04-26T17:42:25Z</time>
      </trkpt>
      <trkpt lat="45.60961" lon="4.45668">
        <ele>532</ele>
        <time>2024-04-26T17:42:34Z</time>
      </trkpt>
      <trkpt lat="45.60992" lon="4.45709">
        <ele>528</ele>
        <time>2024-04-26T17:43:31Z</time>
      </trkpt>
      <trkpt lat="45.60999" lon="4.45728">
        <ele>526</ele>
        <time>2024-04-26T17:43:51Z</time>
      </trkpt>
      <trkpt lat="45.60999" lon="4.45742">
        <ele>526</ele>
        <time>2024-04-26T17:44:04Z</time>
      </trkpt>
      <trkpt lat="45.60996" lon="4.45754">
        <ele>525</ele>
        <time>2024-04-26T17:44:16Z</time>
      </trkpt>
      <trkpt lat="45.60966" lon="4.45804">
        <ele>526</ele>
        <time>2024-04-26T17:45:17Z</time>
      </trkpt>
      <trkpt lat="45.60938" lon="4.45898">
        <ele>531</ele>
        <time>2024-04-26T17:46:53Z</time>
      </trkpt>
      <trkpt lat="45.60929" lon="4.45902">
        <ele>532</ele>
        <time>2024-04-26T17:47:05Z</time>
      </trkpt>
      <trkpt lat="45.60898" lon="4.45904">
        <ele>535</ele>
        <time>2024-04-26T17:47:47Z</time>
      </trkpt>
      <trkpt lat="45.60877" lon="4.45902">
        <ele>537</ele>
        <time>2024-04-26T17:48:15Z</time>
      </trkpt>
      <trkpt lat="45.60849" lon="4.45893">
        <ele>539</ele>
        <time>2024-04-26T17:48:53Z</time>
      </trkpt>
      <trkpt lat="45.60816" lon="4.45895">
        <ele>542</ele>
        <time>2024-04-26T17:49:37Z</time>
      </trkpt>
      <trkpt lat="45.60785" lon="4.45883">
        <ele>544</ele>
        <time>2024-04-26T17:50:20Z</time>
      </trkpt>
      <trkpt lat="45.60752" lon="4.45882">
        <ele>547</ele>
        <time>2024-04-26T17:51:04Z</time>
      </trkpt>
      <trkpt lat="45.60743" lon="4.45885">
        <ele>547</ele>
        <time>2024-04-26T17:51:16Z</time>
      </trkpt>
      <trkpt lat="45.60679" lon="4.45929">
        <ele>551</ele>
        <time>2024-04-26T17:52:51Z</time>
      </trkpt>
      <trkpt lat="45.60652" lon="4.45983">
        <ele>559</ele>
        <time>2024-04-26T17:53:53Z</time>
      </trkpt>
      <trkpt lat="45.60644" lon="4.46012">
        <ele>563</ele>
        <time>2024-04-26T17:54:22Z</time>
      </trkpt>
      <trkpt lat="45.60631" lon="4.4604">
        <ele>567</ele>
        <time>2024-04-26T17:54:54Z</time>
      </trkpt>
      <trkpt lat="45.60625" lon="4.46046">
        <ele>567</ele>
        <time>2024-04-26T17:55:03Z</time>
      </trkpt>
      <trkpt lat="45.60575" lon="4.46067">
        <ele>570</ele>
        <time>2024-04-26T17:56:13Z</time>
      </trkpt>
      <trkpt lat="45.60576" lon="4.46078">
        <ele>572</ele>
        <time>2024-04-26T17:56:23Z</time>
      </trkpt>
      <trkpt lat="45.60589" lon="4.46084">
        <ele>573</ele>
        <time>2024-04-26T17:56:41Z</time>
      </trkpt>
      <trkpt lat="45.60619" lon="4.46085">
        <ele>574</ele>
        <time>2024-04-26T17:57:21Z</time>
      </trkpt>
      <trkpt lat="45.60655" lon="4.46096">
        <ele>576</ele>
        <time>2024-04-26T17:58:11Z</time>
      </trkpt>
      <trkpt lat="45.60683" lon="4.46097">
        <ele>577</ele>
        <time>2024-04-26T17:58:48Z</time>
      </trkpt>
      <trkpt lat="45.607" lon="4.46093">
        <ele>577</ele>
        <time>2024-04-26T17:59:11Z</time>
      </trkpt>
      <trkpt lat="45.60702" lon="4.46115">
        <ele>580</ele>
        <time>2024-04-26T17:59:32Z</time>
      </trkpt>
      <trkpt lat="45.60699" lon="4.46136">
        <ele>583</ele>
        <time>2024-04-26T17:59:52Z</time>
      </trkpt>
      <trkpt lat="45.60708" lon="4.46168">
        <ele>588</ele>
        <time>2024-04-26T18:00:24Z</time>
      </trkpt>
      <trkpt lat="45.60721" lon="4.46189">
        <ele>590</ele>
        <time>2024-04-26T18:00:50Z</time>
      </trkpt>
      <trkpt lat="45.60756" lon="4.46224">
        <ele>593</ele>
        <time>2024-04-26T18:01:47Z</time>
      </trkpt>
      <trkpt lat="45.60769" lon="4.46247">
        <ele>594</ele>
        <time>2024-04-26T18:02:15Z</time>
      </trkpt>
      <trkpt lat="45.6077" lon="4.46262">
        <ele>596</ele>
        <time>2024-04-26T18:02:29Z</time>
      </trkpt>
      <trkpt lat="45.60759" lon="4.46308">
        <ele>603</ele>
        <time>2024-04-26T18:03:14Z</time>
      </trkpt>
      <trkpt lat="45.6076" lon="4.46323">
        <ele>605</ele>
        <time>2024-04-26T18:03:28Z</time>
      </trkpt>
      <trkpt lat="45.60746" lon="4.46358">
        <ele>610</ele>
        <time>2024-04-26T18:04:06Z</time>
      </trkpt>
      <trkpt lat="45.60748" lon="4.46372">
        <ele>611</ele>
        <time>2024-04-26T18:04:19Z</time>
      </trkpt>
      <trkpt lat="45.60765" lon="4.4641">
        <ele>612</ele>
        <time>2024-04-26T18:05:01Z</time>
      </trkpt>
      <trkpt lat="45.60763" lon="4.46423">
        <ele>613</ele>
        <time>2024-04-26T18:05:14Z</time>
      </trkpt>
      <trkpt lat="45.60754" lon="4.46439">
        <ele>616</ele>
        <time>2024-04-26T18:05:33Z</time>
      </trkpt>
      <trkpt lat="45.60735" lon="4.46448">
        <ele>619</ele>
        <time>2024-04-26T18:06:00Z</time>
      </trkpt>
      <trkpt lat="45.60715" lon="4.46465">
        <ele>622</ele>
        <time>2024-04-26T18:06:31Z</time>
      </trkpt>
      <trkpt lat="45.60696" lon="4.46491">
        <ele>627</ele>
        <time>2024-04-26T18:07:06Z</time>
      </trkpt>
      <trkpt lat="45.60682" lon="4.46492">
        <ele>628</ele>
        <time>2024-04-26T18:07:24Z</time>
      </trkpt>
      <trkpt lat="45.60647" lon="4.46458">
        <ele>630</ele>
        <time>2024-04-26T18:08:21Z</time>
      </trkpt>
      <trkpt lat="45.6064" lon="4.46456">
        <ele>630</ele>
        <time>2024-04-26T18:08:30Z</time>
      </trkpt>
      <trkpt lat="45.60635" lon="4.4646">
        <ele>631</ele>
        <time>2024-04-26T18:08:38Z</time>
      </trkpt>
      <trkpt lat="45.60607" lon="4.46535">
        <ele>641</ele>
        <time>2024-04-26T18:09:57Z</time>
      </trkpt>
      <trkpt lat="45.60579" lon="4.46589">
        <ele>652</ele>
        <time>2024-04-26T18:11:00Z</time>
      </trkpt>
      <trkpt lat="45.60571" lon="4.46595">
        <ele>653</ele>
        <time>2024-04-26T18:11:12Z</time>
      </trkpt>
      <trkpt lat="45.60563" lon="4.4661">
        <ele>656</ele>
        <time>2024-04-26T18:11:30Z</time>
      </trkpt>
      <trkpt lat="45.60535" lon="4.46683">
        <ele>666</ele>
        <time>2024-04-26T18:12:48Z</time>
      </trkpt>
      <trkpt lat="45.60528" lon="4.46684">
        <ele>667</ele>
        <time>2024-04-26T18:12:57Z</time>
      </trkpt>
      <trkpt lat="45.60495" lon="4.46649">
        <ele>668</ele>
        <time>2024-04-26T18:13:52Z</time>
      </trkpt>
      <trkpt lat="45.60469" lon="4.46746">
        <ele>677</ele>
        <time>2024-04-26T18:15:29Z</time>
      </trkpt>
      <trkpt lat="45.60465" lon="4.46753">
        <ele>677</ele>
        <time>2024-04-26T18:15:37Z</time>
      </trkpt>
      <trkpt lat="45.60449" lon="4.46759">
        <ele>678</ele>
        <time>2024-04-26T18:15:59Z</time>
      </trkpt>
      <trkpt lat="45.60438" lon="4.46768">
        <ele>679</ele>
        <time>2024-04-26T18:16:16Z</time>
      </trkpt>
      <trkpt lat="45.60332" lon="4.46804">
        <ele>681</ele>
        <time>2024-04-26T18:18:42Z</time>
      </trkpt>
      <trkpt lat="45.60257" lon="4.46824">
        <ele>681</ele>
        <time>2024-04-26T18:20:23Z</time>
      </trkpt>
      <trkpt lat="45.60158" lon="4.46818">
        <ele>670</ele>
        <time>2024-04-26T18:22:36Z</time>
      </trkpt>
      <trkpt lat="45.60108" lon="4.4682">
        <ele>663</ele>
        <time>2024-04-26T18:23:42Z</time>
      </trkpt>
      <trkpt lat="45.60087" lon="4.46828">
        <ele>662</ele>
        <time>2024-04-26T18:24:11Z</time>
      </trkpt>
      <trkpt lat="45.60037" lon="4.46859">
        <ele>659</ele>
        <time>2024-04-26T18:25:24Z</time>
      </trkpt>
      <trkpt lat="45.6001" lon="4.46899">
        <ele>659</ele>
        <time>2024-04-26T18:26:16Z</time>
      </trkpt>
      <trkpt lat="45.6" lon="4.4692">
        <ele>660</ele>
        <time>2024-04-26T18:26:40Z</time>
      </trkpt>
      <trkpt lat="45.59998" lon="4.4694">
        <ele>660</ele>
        <time>2024-04-26T18:26:59Z</time>
      </trkpt>
      <trkpt lat="45.6002" lon="4.4703">
        <ele>666</ele>
        <time>2024-04-26T18:28:28Z</time>
      </trkpt>
      <trkpt lat="45.60031" lon="4.4706">
        <ele>668</ele>
        <time>2024-04-26T18:28:59Z</time>
      </trkpt>
      <trkpt lat="45.60023" lon="4.47083">
        <ele>668</ele>
        <time>2024-04-26T18:29:23Z</time>
      </trkpt>
      <trkpt lat="45.60017" lon="4.4712">
        <ele>671</ele>
        <time>2024-04-26T18:29:59Z</time>
      </trkpt>
      <trkpt lat="45.60021" lon="4.47146">
        <ele>675</ele>
        <time>2024-04-26T18:30:24Z</time>
      </trkpt>
      <trkpt lat="45.60033" lon="4.4715">
        <ele>676</ele>
        <time>2024-04-26T18:30:40Z</time>
      </trkpt>
      <trkpt lat="45.60053" lon="4.47142">
        <ele>677</ele>
        <time>2024-04-26T18:31:08Z</time>
      </trkpt>
      <trkpt lat="45.60076" lon="4.47141">
        <ele>679</ele>
        <time>2024-04-26T18:31:38Z</time>
      </trkpt>
      <trkpt lat="45.60132" lon="4.47116">
        <ele>682</ele>
        <time>2024-04-26T18:32:57Z</time>
      </trkpt>
      <trkpt lat="45.60153" lon="4.47123">
        <ele>684</ele>
        <time>2024-04-26T18:33:25Z</time>
      </trkpt>
      <trkpt lat="45.60161" lon="4.47134">
        <ele>686</ele>
        <time>2024-04-26T18:33:40Z</time>
      </trkpt>
      <trkpt lat="45.60158" lon="4.47146">
        <ele>687</ele>
        <time>2024-04-26T18:33:52Z</time>
      </trkpt>
      <trkpt lat="45.60147" lon="4.47158">
        <ele>687</ele>
        <time>2024-04-26T18:34:11Z</time>
      </trkpt>
      <trkpt lat="45.60077" lon="4.4721">
        <ele>686</ele>
        <time>2024-04-26T18:35:56Z</time>
      </trkpt>
      <trkpt lat="45.60068" lon="4.47229">
        <ele>688</ele>
        <time>2024-04-26T18:36:17Z</time>
      </trkpt>
      <trkpt lat="45.60102" lon="4.47319">
        <ele>700</ele>
        <time>2024-04-26T18:37:53Z</time>
      </trkpt>
      <trkpt lat="45.60111" lon="4.47329">
        <ele>702</ele>
        <time>2024-04-26T18:38:08Z</time>
      </trkpt>
      <trkpt lat="45.60126" lon="4.47363">
        <ele>707</ele>
        <time>2024-04-26T18:38:46Z</time>
      </trkpt>
      <trkpt lat="45.60139" lon="4.47414">
        <ele>714</ele>
        <time>2024-04-26T18:39:36Z</time>
      </trkpt>
      <trkpt lat="45.60189" lon="4.47532">
        <ele>727</ele>
        <time>2024-04-26T18:41:45Z</time>
      </trkpt>
      <trkpt lat="45.60185" lon="4.47537">
        <ele>727</ele>
        <time>2024-04-26T18:41:52Z</time>
      </trkpt>
      <trkpt lat="45.60162" lon="4.47539">
        <ele>727</ele>
        <time>2024-04-26T18:42:23Z</time>
      </trkpt>
      <trkpt lat="45.60141" lon="4.47546">
        <ele>727</ele>
        <time>2024-04-26T18:42:52Z</time>
      </trkpt>
      <trkpt lat="45.60116" lon="4.47556">
        <ele>727</ele>
        <time>2024-04-26T18:43:26Z</time>
      </trkpt>
      <trkpt lat="45.60108" lon="4.47563">
        <ele>727</ele>
        <time>2024-04-26T18:43:39Z</time>
      </trkpt>
      <trkpt lat="45.60097" lon="4.47582">
        <ele>729</ele>
        <time>2024-04-26T18:44:02Z</time>
      </trkpt>
      <trkpt lat="45.60081" lon="4.47647">
        <ele>728</ele>
        <time>2024-04-26T18:45:06Z</time>
      </trkpt>
      <trkpt lat="45.60057" lon="4.47691">
        <ele>728</ele>
        <time>2024-04-26T18:45:58Z</time>
      </trkpt>
      <trkpt lat="45.60049" lon="4.47698">
        <ele>728</ele>
        <time>2024-04-26T18:46:11Z</time>
      </trkpt>
      <trkpt lat="45.60051" lon="4.47704">
        <ele>729</ele>
        <time>2024-04-26T18:46:17Z</time>
      </trkpt>
      <trkpt lat="45.60056" lon="4.47704">
        <ele>729</ele>
        <time>2024-04-26T18:46:24Z</time>
      </trkpt>
      <trkpt lat="45.60068" lon="4.47719">
        <ele>730</ele>
        <time>2024-04-26T18:46:45Z</time>
      </trkpt>
      <trkpt lat="45.60075" lon="4.47739">
        <ele>732</ele>
        <time>2024-04-26T18:47:06Z</time>
      </trkpt>
      <trkpt lat="45.60062" lon="4.47772">
        <ele>734</ele>
        <time>2024-04-26T18:47:41Z</time>
      </trkpt>
      <trkpt lat="45.60073" lon="4.47802">
        <ele>736</ele>
        <time>2024-04-26T18:48:13Z</time>
      </trkpt>
      <trkpt lat="45.60074" lon="4.47817">
        <ele>737</ele>
        <time>2024-04-26T18:48:27Z</time>
      </trkpt>
      <trkpt lat="45.60068" lon="4.47828">
        <ele>738</ele>
        <time>2024-04-26T18:48:40Z</time>
      </trkpt>
      <trkpt lat="45.60013" lon="4.47856">
        <ele>738</ele>
        <time>2024-04-26T18:49:58Z</time>
      </trkpt>
      <trkpt lat="45.59974" lon="4.47868">
        <ele>739</ele>
        <time>2024-04-26T18:50:51Z</time>
      </trkpt>
      <trkpt lat="45.59935" lon="4.47873">
        <ele>741</ele>
        <time>2024-04-26T18:51:43Z</time>
      </trkpt>
      <trkpt lat="45.59919" lon="4.47872">
        <ele>741</ele>
        <time>2024-04-26T18:52:05Z</time>
      </trkpt>
      <trkpt lat="45.59855" lon="4.47852">
        <ele>742</ele>
        <time>2024-04-26T18:53:32Z</time>
      </trkpt>
      <trkpt lat="45.5984" lon="4.4787">
        <ele>743</ele>
        <time>2024-04-26T18:53:58Z</time>
      </trkpt>
      <trkpt lat="45.59835" lon="4.47887">
        <ele>744</ele>
        <time>2024-04-26T18:54:15Z</time>
      </trkpt>
      <trkpt lat="45.59836" lon="4.47905">
        <ele>745</ele>
        <time>2024-04-26T18:54:32Z</time>
      </trkpt>
      <trkpt lat="45.5987" lon="4.4798">
        <ele>750</ele>
        <time>2024-04-26T18:55:56Z</time>
      </trkpt>
      <trkpt lat="45.59893" lon="4.48021">
        <ele>754</ele>
        <time>2024-04-26T18:56:45Z</time>
      </trkpt>
      <trkpt lat="45.59904" lon="4.48054">
        <ele>757</ele>
        <time>2024-04-26T18:57:19Z</time>
      </trkpt>
      <trkpt lat="45.59949" lon="4.48121">
        <ele>762</ele>
        <time>2024-04-26T18:58:46Z</time>
      </trkpt>
      <trkpt lat="45.5998" lon="4.48185">
        <ele>764</ele>
        <time>2024-04-26T18:59:58Z</time>
      </trkpt>
      <trkpt lat="45.59994" lon="4.48219">
        <ele>768</ele>
        <time>2024-04-26T19:00:35Z</time>
      </trkpt>
      <trkpt lat="45.60011" lon="4.48283">
        <ele>770</ele>
        <time>2024-04-26T19:01:39Z</time>
      </trkpt>
      <trkpt lat="45.60009" lon="4.48297">
        <ele>770</ele>
        <time>2024-04-26T19:01:52Z</time>
      </trkpt>
      <trkpt lat="45.6" lon="4.48312">
        <ele>772</ele>
        <time>2024-04-26T19:02:11Z</time>
      </trkpt>
      <trkpt lat="45.59977" lon="4.48381">
        <ele>773</ele>
        <time>2024-04-26T19:03:22Z</time>
      </trkpt>
      <trkpt lat="45.59948" lon="4.48429">
        <ele>776</ele>
        <time>2024-04-26T19:04:21Z</time>
      </trkpt>
      <trkpt lat="45.59882" lon="4.4852">
        <ele>781</ele>
        <time>2024-04-26T19:06:24Z</time>
      </trkpt>
      <trkpt lat="45.59867" lon="4.48553">
        <ele>782</ele>
        <time>2024-04-26T19:07:01Z</time>
      </trkpt>
      <trkpt lat="45.59852" lon="4.48619">
        <ele>785</ele>
        <time>2024-04-26T19:08:05Z</time>
      </trkpt>
      <trkpt lat="45.59842" lon="4.48718">
        <ele>788</ele>
        <time>2024-04-26T19:09:39Z</time>
      </trkpt>
      <trkpt lat="45.59796" lon="4.4892">
        <ele>784</ele>
        <time>2024-04-26T19:12:57Z</time>
      </trkpt>
      <trkpt lat="45.59793" lon="4.49008">
        <ele>786</ele>
        <time>2024-04-26T19:14:19Z</time>
      </trkpt>
      <trkpt lat="45.59788" lon="4.49029">
        <ele>787</ele>
        <time>2024-04-26T19:14:40Z</time>
      </trkpt>
      <trkpt lat="45.5979" lon="4.49031">
        <ele>787</ele>
        <time>2024-04-26T19:14:43Z</time>
      </trkpt>
      <trkpt lat="45.59792" lon="4.49026">
        <ele>787</ele>
        <time>2024-04-26T19:14:49Z</time>
      </trkpt>
      <trkpt lat="45.59801" lon="4.49034">
        <ele>788</ele>
        <time>2024-04-26T19:15:03Z</time>
      </trkpt>
      <trkpt lat="45.59846" lon="4.49025">
        <ele>785</ele>
        <time>2024-04-26T19:16:04Z</time>
      </trkpt>
      <trkpt lat="45.59871" lon="4.49031">
        <ele>782</ele>
        <time>2024-04-26T19:16:37Z</time>
      </trkpt>
      <trkpt lat="45.59895" lon="4.49044">
        <ele>780</ele>
        <time>2024-04-26T19:17:12Z</time>
      </trkpt>
      <trkpt lat="45.59924" lon="4.49068">
        <ele>778</ele>
        <time>2024-04-26T19:17:56Z</time>
      </trkpt>
      <trkpt lat="45.59947" lon="4.49079">
        <ele>775</ele>
        <time>2024-04-26T19:18:29Z</time>
      </trkpt>
      <trkpt lat="45.59999" lon="4.49122">
        <ele>768</ele>
        <time>2024-04-26T19:19:49Z</time>
      </trkpt>
      <trkpt lat="45.60065" lon="4.49167">
        <ele>755</ele>
        <time>2024-04-26T19:21:26Z</time>
      </trkpt>
      <trkpt lat="45.60074" lon="4.49183">
        <ele>753</ele>
        <time>2024-04-26T19:21:46Z</time>
      </trkpt>
      <trkpt lat="45.60086" lon="4.49197">
        <ele>750</ele>
        <time>2024-04-26T19:22:06Z</time>
      </trkpt>
      <trkpt lat="45.60096" lon="4.49201">
        <ele>747</ele>
        <time>2024-04-26T19:22:20Z</time>
      </trkpt>
      <trkpt lat="45.60145" lon="4.49263">
        <ele>737</ele>
        <time>2024-04-26T19:23:47Z</time>
      </trkpt>
      <trkpt lat="45.6019" lon="4.49306">
        <ele>730</ele>
        <time>2024-04-26T19:25:00Z</time>
      </trkpt>
      <trkpt lat="45.60209" lon="4.49312">
        <ele>727</ele>
        <time>2024-04-26T19:25:26Z</time>
      </trkpt>
      <trkpt lat="45.60217" lon="4.49325">
        <ele>727</ele>
        <time>2024-04-26T19:25:42Z</time>
      </trkpt>
      <trkpt lat="45.60265" lon="4.49347">
        <ele>722</ele>
        <time>2024-04-26T19:26:49Z</time>
      </trkpt>
      <trkpt lat="45.60284" lon="4.49363">
        <ele>718</ele>
        <time>2024-04-26T19:27:19Z</time>
      </trkpt>
      <trkpt lat="45.60301" lon="4.4937">
        <ele>716</ele>
        <time>2024-04-26T19:27:42Z</time>
      </trkpt>
      <trkpt lat="45.60324" lon="4.49397">
        <ele>713</ele>
        <time>2024-04-26T19:28:22Z</time>
      </trkpt>
      <trkpt lat="45.60337" lon="4.49403">
        <ele>711</ele>
        <time>2024-04-26T19:28:40Z</time>
      </trkpt>
      <trkpt lat="45.60381" lon="4.49444">
        <ele>707</ele>
        <time>2024-04-26T19:29:50Z</time>
      </trkpt>
      <trkpt lat="45.60441" lon="4.49469">
        <ele>705</ele>
        <time>2024-04-26T19:31:14Z</time>
      </trkpt>
      <trkpt lat="45.60492" lon="4.49504">
        <ele>705</ele>
        <time>2024-04-26T19:32:29Z</time>
      </trkpt>
      <trkpt lat="45.60515" lon="4.49525">
        <ele>699</ele>
        <time>2024-04-26T19:33:05Z</time>
      </trkpt>
      <trkpt lat="45.60544" lon="4.4956">
        <ele>690</ele>
        <time>2024-04-26T19:33:56Z</time>
      </trkpt>
      <trkpt lat="45.60559" lon="4.49589">
        <ele>684</ele>
        <time>2024-04-26T19:34:30Z</time>
      </trkpt>
      <trkpt lat="45.60566" lon="4.49588">
        <ele>683</ele>
        <time>2024-04-26T19:34:39Z</time>
      </trkpt>
      <trkpt lat="45.60581" lon="4.49598">
        <ele>681</ele>
        <time>2024-04-26T19:35:01Z</time>
      </trkpt>
      <trkpt lat="45.60608" lon="4.496">
        <ele>674</ele>
        <time>2024-04-26T19:35:37Z</time>
      </trkpt>
      <trkpt lat="45.60621" lon="4.49596">
        <ele>672</ele>
        <time>2024-04-26T19:35:55Z</time>
      </trkpt>
      <trkpt lat="45.60645" lon="4.49577">
        <ele>666</ele>
        <time>2024-04-26T19:36:32Z</time>
      </trkpt>
      <trkpt lat="45.60683" lon="4.49565">
        <ele>657</ele>
        <time>2024-04-26T19:37:24Z</time>
      </trkpt>
      <trkpt lat="45.60696" lon="4.49567">
        <ele>654</ele>
        <time>2024-04-26T19:37:41Z</time>
      </trkpt>
      <trkpt lat="45.60717" lon="4.49547">
        <ele>648</ele>
        <time>2024-04-26T19:38:15Z</time>
      </trkpt>
      <trkpt lat="45.60729" lon="4.49541">
        <ele>645</ele>
        <time>2024-04-26T19:38:32Z</time>
      </trkpt>
      <trkpt lat="45.60735" lon="4.49542">
        <ele>644</ele>
        <time>2024-04-26T19:38:40Z</time>
      </trkpt>
      <trkpt lat="45.60753" lon="4.49598">
        <ele>641</ele>
        <time>2024-04-26T19:39:37Z</time>
      </trkpt>
      <trkpt lat="45.60763" lon="4.49603">
        <ele>641</ele>
        <time>2024-04-26T19:39:51Z</time>
      </trkpt>
      <trkpt lat="45.60778" lon="4.49601">
        <ele>641</ele>
        <time>2024-04-26T19:40:12Z</time>
      </trkpt>
      <trkpt lat="45.60809" lon="4.49608">
        <ele>640</ele>
        <time>2024-04-26T19:40:53Z</time>
      </trkpt>
      <trkpt lat="45.60892" lon="4.49706">
        <ele>658</ele>
        <time>2024-04-26T19:43:17Z</time>
      </trkpt>
      <trkpt lat="45.60928" lon="4.49734">
        <ele>663</ele>
        <time>2024-04-26T19:44:12Z</time>
      </trkpt>
      <trkpt lat="45.60971" lon="4.4976">
        <ele>669</ele>
        <time>2024-04-26T19:45:14Z</time>
      </trkpt>
      <trkpt lat="45.60988" lon="4.49783">
        <ele>671</ele>
        <time>2024-04-26T19:45:45Z</time>
      </trkpt>
      <trkpt lat="45.61025" lon="4.4982">
        <ele>675</ele>
        <time>2024-04-26T19:46:46Z</time>
      </trkpt>
      <trkpt lat="45.61076" lon="4.49833">
        <ele>678</ele>
        <time>2024-04-26T19:47:55Z</time>
      </trkpt>
      <trkpt lat="45.61093" lon="4.49855">
        <ele>680</ele>
        <time>2024-04-26T19:48:25Z</time>
      </trkpt>
      <trkpt lat="45.61144" lon="4.49891">
        <ele>683</ele>
        <time>2024-04-26T19:49:41Z</time>
      </trkpt>
      <trkpt lat="45.61152" lon="4.49903">
        <ele>684</ele>
        <time>2024-04-26T19:49:57Z</time>
      </trkpt>
      <trkpt lat="45.61156" lon="4.49896">
        <ele>683</ele>
        <time>2024-04-26T19:50:05Z</time>
      </trkpt>
      <trkpt lat="45.61161" lon="4.49804">
        <ele>676</ele>
        <time>2024-04-26T19:51:31Z</time>
      </trkpt>
      <trkpt lat="45.6113" lon="4.49678">
        <ele>665</ele>
        <time>2024-04-26T19:53:36Z</time>
      </trkpt>
      <trkpt lat="45.61127" lon="4.49645">
        <ele>663</ele>
        <time>2024-04-26T19:54:07Z</time>
      </trkpt>
      <trkpt lat="45.61113" lon="4.4958">
        <ele>658</ele>
        <time>2024-04-26T19:55:11Z</time>
      </trkpt>
      <trkpt lat="45.61114" lon="4.49551">
        <ele>654</ele>
        <time>2024-04-26T19:55:38Z</time>
      </trkpt>
      <trkpt lat="45.61109" lon="4.49504">
        <ele>648</ele>
        <time>2024-04-26T19:56:22Z</time>
      </trkpt>
      <trkpt lat="45.61093" lon="4.49438">
        <ele>639</ele>
        <time>2024-04-26T19:57:27Z</time>
      </trkpt>
      <trkpt lat="45.61095" lon="4.49391">
        <ele>633</ele>
        <time>2024-04-26T19:58:11Z</time>
      </trkpt>
      <trkpt lat="45.6109" lon="4.49331">
        <ele>624</ele>
        <time>2024-04-26T19:59:08Z</time>
      </trkpt>
      <trkpt lat="45.61097" lon="4.49292">
        <ele>620</ele>
        <time>2024-04-26T19:59:45Z</time>
      </trkpt>
      <trkpt lat="45.6111" lon="4.49261">
        <ele>617</ele>
        <time>2024-04-26T20:00:19Z</time>
      </trkpt>
      <trkpt lat="45.61107" lon="4.49243">
        <ele>615</ele>
        <time>2024-04-26T20:00:36Z</time>
      </trkpt>
      <trkpt lat="45.61088" lon="4.49209">
        <ele>612</ele>
        <time>2024-04-26T20:01:17Z</time>
      </trkpt>
      <trkpt lat="45.61081" lon="4.49184">
        <ele>611</ele>
        <time>2024-04-26T20:01:42Z</time>
      </trkpt>
      <trkpt lat="45.61086" lon="4.49158">
        <ele>610</ele>
        <time>2024-04-26T20:02:07Z</time>
      </trkpt>
      <trkpt lat="45.61095" lon="4.49149">
        <ele>609</ele>
        <time>2024-04-26T20:02:22Z</time>
      </trkpt>
      <trkpt lat="45.61105" lon="4.49104">
        <ele>607</ele>
        <time>2024-04-26T20:03:06Z</time>
      </trkpt>
      <trkpt lat="45.61083" lon="4.49018">
        <ele>605</ele>
        <time>2024-04-26T20:04:31Z</time>
      </trkpt>
      <trkpt lat="45.61086" lon="4.48845">
        <ele>610</ele>
        <time>2024-04-26T20:07:13Z</time>
      </trkpt>
      <trkpt lat="45.61081" lon="4.48777">
        <ele>615</ele>
        <time>2024-04-26T20:08:17Z</time>
      </trkpt>
      <trkpt lat="45.61098" lon="4.48722">
        <ele>620</ele>
        <time>2024-04-26T20:09:13Z</time>
      </trkpt>
      <trkpt lat="45.61112" lon="4.48706">
        <ele>622</ele>
        <time>2024-04-26T20:09:37Z</time>
      </trkpt>
      <trkpt lat="45.61126" lon="4.48697">
        <ele>623</ele>
        <time>2024-04-26T20:09:57Z</time>
      </trkpt>
      <trkpt lat="45.61145" lon="4.48655">
        <ele>627</ele>
        <time>2024-04-26T20:10:44Z</time>
      </trkpt>
      <trkpt lat="45.61153" lon="4.48628">
        <ele>627</ele>
        <time>2024-04-26T20:11:11Z</time>
      </trkpt>
      <trkpt lat="45.61156" lon="4.48576">
        <ele>628</ele>
        <time>2024-04-26T20:12:00Z</time>
      </trkpt>
      <trkpt lat="45.6115" lon="4.48545">
        <ele>627</ele>
        <time>2024-04-26T20:12:30Z</time>
      </trkpt>
      <trkpt lat="45.61127" lon="4.48476">
        <ele>626</ele>
        <time>2024-04-26T20:13:41Z</time>
      </trkpt>
      <trkpt lat="45.61121" lon="4.48432">
        <ele>624</ele>
        <time>2024-04-26T20:14:23Z</time>
      </trkpt>
      <trkpt lat="45.61114" lon="4.48411">
        <ele>623</ele>
        <time>2024-04-26T20:14:45Z</time>
      </trkpt>
      <trkpt lat="45.6109" lon="4.48371">
        <ele>626</ele>
        <time>2024-04-26T20:15:34Z</time>
      </trkpt>
      <trkpt lat="45.61082" lon="4.48349">
        <ele>627</ele>
        <time>2024-04-26T20:15:57Z</time>
      </trkpt>
      <trkpt lat="45.61081" lon="4.48297">
        <ele>630</ele>
        <time>2024-04-26T20:16:46Z</time>
      </trkpt>
      <trkpt lat="45.61076" lon="4.48266">
        <ele>632</ele>
        <time>2024-04-26T20:17:16Z</time>
      </trkpt>
      <trkpt lat="45.61082" lon="4.48255">
        <ele>633</ele>
        <time>2024-04-26T20:17:29Z</time>
      </trkpt>
      <trkpt lat="45.61116" lon="4.48245">
        <ele>630</ele>
        <time>2024-04-26T20:18:15Z</time>
      </trkpt>
      <trkpt lat="45.61137" lon="4.48217">
        <ele>631</ele>
        <time>2024-04-26T20:18:53Z</time>
      </trkpt>
      <trkpt lat="45.61181" lon="4.48179">
        <ele>631</ele>
        <time>2024-04-26T20:20:02Z</time>
      </trkpt>
      <trkpt lat="45.61192" lon="4.48158">
        <ele>632</ele>
        <time>2024-04-26T20:20:26Z</time>
      </trkpt>
      <trkpt lat="45.61247" lon="4.48086">
        <ele>634</ele>
        <time>2024-04-26T20:22:06Z</time>
      </trkpt>
      <trkpt lat="45.6128" lon="4.48073">
        <ele>634</ele>
        <time>2024-04-26T20:22:51Z</time>
      </trkpt>
      <trkpt lat="45.61317" lon="4.48069">
        <ele>634</ele>
        <time>2024-04-26T20:23:41Z</time>
      </trkpt>
      <trkpt lat="45.61325" lon="4.48061">
        <ele>635</ele>
        <time>2024-04-26T20:23:54Z</time>
      </trkpt>
      <trkpt lat="45.61333" lon="4.48031">
        <ele>638</ele>
        <time>2024-04-26T20:24:24Z</time>
      </trkpt>
      <trkpt lat="45.61332" lon="4.4802">
        <ele>639</ele>
        <time>2024-04-26T20:24:34Z</time>
      </trkpt>
      <trkpt lat="45.61323" lon="4.47993">
        <ele>642</ele>
        <time>2024-04-26T20:25:02Z</time>
      </trkpt>
      <trkpt lat="45.61298" lon="4.47961">
        <ele>645</ele>
        <time>2024-04-26T20:25:47Z</time>
      </trkpt>
      <trkpt lat="45.61294" lon="4.47934">
        <ele>647</ele>
        <time>2024-04-26T20:26:13Z</time>
      </trkpt>
      <trkpt lat="45.61296" lon="4.47881">
        <ele>650</ele>
        <time>2024-04-26T20:27:02Z</time>
      </trkpt>
      <trkpt lat="45.61292" lon="4.47858">
        <ele>651</ele>
        <time>2024-04-26T20:27:24Z</time>
      </trkpt>
      <trkpt lat="45.61299" lon="4.47843">
        <ele>652</ele>
        <time>2024-04-26T20:27:41Z</time>
      </trkpt>
      <trkpt lat="45.61346" lon="4.478">
        <ele>649</ele>
        <time>2024-04-26T20:28:56Z</time>
      </trkpt>
      <trkpt lat="45.61356" lon="4.47778">
        <ele>648</ele>
        <time>2024-04-26T20:29:20Z</time>
      </trkpt>
      <trkpt lat="45.61353" lon="4.47715">
        <ele>649</ele>
        <time>2024-04-26T20:30:19Z</time>
      </trkpt>
      <trkpt lat="45.61341" lon="4.47651">
        <ele>651</ele>
        <time>2024-04-26T20:31:21Z</time>
      </trkpt>
      <trkpt lat="45.61325" lon="4.47627">
        <ele>651</ele>
        <time>2024-04-26T20:31:52Z</time>
      </trkpt>
      <trkpt lat="45.61327" lon="4.4762">
        <ele>651</ele>
        <time>2024-04-26T20:31:59Z</time>
      </trkpt>
      <trkpt lat="45.6138" lon="4.47548">
        <ele>649</ele>
        <time>2024-04-26T20:33:37Z</time>
      </trkpt>
      <trkpt lat="45.61393" lon="4.47513">
        <ele>648</ele>
        <time>2024-04-26T20:34:14Z</time>
      </trkpt>
      <trkpt lat="45.61451" lon="4.47449">
        <ele>643</ele>
        <time>2024-04-26T20:35:51Z</time>
      </trkpt>
      <trkpt lat="45.6147" lon="4.47464">
        <ele>641</ele>
        <time>2024-04-26T20:36:20Z</time>
      </trkpt>
      <trkpt lat="45.6151" lon="4.47525">
        <ele>638</ele>
        <time>2024-04-26T20:37:38Z</time>
      </trkpt>
      <trkpt lat="45.61531" lon="4.47549">
        <ele>635</ele>
        <time>2024-04-26T20:38:14Z</time>
      </trkpt>
      <trkpt lat="45.61586" lon="4.4765">
        <ele>628</ele>
        <time>2024-04-26T20:40:14Z</time>
      </trkpt>
      <trkpt lat="45.61595" lon="4.47643">
        <ele>627</ele>
        <time>2024-04-26T20:40:27Z</time>
      </trkpt>
      <trkpt lat="45.61609" lon="4.47622">
        <ele>626</ele>
        <time>2024-04-26T20:40:55Z</time>
      </trkpt>
      <trkpt lat="45.61633" lon="4.47566">
        <ele>622</ele>
        <time>2024-04-26T20:41:56Z</time>
      </trkpt>
      <trkpt lat="45.61659" lon="4.47521">
        <ele>617</ele>
        <time>2024-04-26T20:42:50Z</time>
      </trkpt>
      <trkpt lat="45.61664" lon="4.47503">
        <ele>616</ele>
        <time>2024-04-26T20:43:08Z</time>
      </trkpt>
      <trkpt lat="45.6168" lon="4.47478">
        <ele>614</ele>
        <time>2024-04-26T20:43:40Z</time>
      </trkpt>
      <trkpt lat="45.61686" lon="4.47438">
        <ele>612</ele>
        <time>2024-04-26T20:44:18Z</time>
      </trkpt>
      <trkpt lat="45.61696" lon="4.47411">
        <ele>611</ele>
        <time>2024-04-26T20:44:47Z</time>
      </trkpt>
      <trkpt lat="45.61727" lon="4.47369">
        <ele>607</ele>
        <time>2024-04-26T20:45:44Z</time>
      </trkpt>
      <trkpt lat="45.6179" lon="4.47333">
        <ele>601</ele>
        <time>2024-04-26T20:47:14Z</time>
      </trkpt>
      <trkpt lat="45.61822" lon="4.47307">
        <ele>599</ele>
        <time>2024-04-26T20:48:03Z</time>
      </trkpt>
      <trkpt lat="45.61841" lon="4.47282">
        <ele>598</ele>
        <time>2024-04-26T20:48:38Z</time>
      </trkpt>
      <trkpt lat="45.61906" lon="4.47257">
        <ele>593</ele>
        <time>2024-04-26T20:50:08Z</time>
      </trkpt>
      <trkpt lat="45.61982" lon="4.47161">
        <ele>593</ele>
        <time>2024-04-26T20:52:23Z</time>
      </trkpt>
      <trkpt lat="45.62012" lon="4.4711">
        <ele>595</ele>
        <time>2024-04-26T20:53:25Z</time>
      </trkpt>
      <trkpt lat="45.62026" lon="4.47107">
        <ele>595</ele>
        <time>2024-04-26T20:53:44Z</time>
      </trkpt>
      <trkpt lat="45.62053" lon="4.47127">
        <ele>591</ele>
        <time>2024-04-26T20:54:25Z</time>
      </trkpt>
      <trkpt lat="45.62093" lon="4.47141">
        <ele>586</ele>
        <time>2024-04-26T20:55:20Z</time>
      </trkpt>
      <trkpt lat="45.62156" lon="4.47123">
        <ele>578</ele>
        <time>2024-04-26T20:56:45Z</time>
      </trkpt>
      <trkpt lat="45.6217" lon="4.47104">
        <ele>577</ele>
        <time>2024-04-26T20:57:11Z</time>
      </trkpt>
      <trkpt lat="45.62195" lon="4.47084">
        <ele>573</ele>
        <time>2024-04-26T20:57:49Z</time>
      </trkpt>
      <trkpt lat="45.6227" lon="4.46989">
        <ele>566</ele>
        <time>2024-04-26T21:00:03Z</time>
      </trkpt>
      <trkpt lat="45.62311" lon="4.46958">
        <ele>563</ele>
        <time>2024-04-26T21:01:05Z</time>
      </trkpt>
      <trkpt lat="45.62354" lon="4.46914">
        <ele>563</ele>
        <time>2024-04-26T21:02:15Z</time>
      </trkpt>
      <trkpt lat="45.62388" lon="4.46865">
        <ele>562</ele>
        <time>2024-04-26T21:03:20Z</time>
      </trkpt>
      <trkpt lat="45.62438" lon="4.46772">
        <ele>561</ele>
        <time>2024-04-26T21:05:09Z</time>
      </trkpt>
      <trkpt lat="45.62439" lon="4.46743">
        <ele>562</ele>
        <time>2024-04-26T21:05:36Z</time>
      </trkpt>
      <trkpt lat="45.62447" lon="4.46723">
        <ele>561</ele>
        <time>2024-04-26T21:05:58Z</time>
      </trkpt>
      <trkpt lat="45.62457" lon="4.46669">
        <ele>559</ele>
        <time>2024-04-26T21:06:50Z</time>
      </trkpt>
      <trkpt lat="45.62468" lon="4.46641">
        <ele>555</ele>
        <time>2024-04-26T21:07:20Z</time>
      </trkpt>
      <trkpt lat="45.62484" lon="4.46556">
        <ele>545</ele>
        <time>2024-04-26T21:08:42Z</time>
      </trkpt>
      <trkpt lat="45.62494" lon="4.46546">
        <ele>542</ele>
        <time>2024-04-26T21:08:59Z</time>
      </trkpt>
      <trkpt lat="45.62508" lon="4.46542">
        <ele>539</ele>
        <time>2024-04-26T21:09:18Z</time>
      </trkpt>
      <trkpt lat="45.6251" lon="4.46531">
        <ele>537</ele>
        <time>2024-04-26T21:09:28Z</time>
      </trkpt>
      <trkpt lat="45.62515" lon="4.46526">
        <ele>536</ele>
        <time>2024-04-26T21:09:36Z</time>
      </trkpt>
      <trkpt lat="45.62555" lon="4.46503">
        <ele>526</ele>
        <time>2024-04-26T21:10:34Z</time>
      </trkpt>
      <trkpt lat="45.62575" lon="4.46501">
        <ele>522</ele>
        <time>2024-04-26T21:11:01Z</time>
      </trkpt>
      <trkpt lat="45.62589" lon="4.46492">
        <ele>519</ele>
        <time>2024-04-26T21:11:21Z</time>
      </trkpt>
      <trkpt lat="45.62613" lon="4.46498">
        <ele>518</ele>
        <time>2024-04-26T21:11:54Z</time>
      </trkpt>
      <trkpt lat="45.62623" lon="4.46496">
        <ele>517</ele>
        <time>2024-04-26T21:12:07Z</time>
      </trkpt>
      <trkpt lat="45.62663" lon="4.46481">
        <ele>514</ele>
        <time>2024-04-26T21:13:02Z</time>
      </trkpt>
      <trkpt lat="45.62691" lon="4.46429">
        <ele>517</ele>
        <time>2024-04-26T21:14:03Z</time>
      </trkpt>
      <trkpt lat="45.62702" lon="4.46398">
        <ele>518</ele>
        <time>2024-04-26T21:14:36Z</time>
      </trkpt>
      <trkpt lat="45.62717" lon="4.46377">
        <ele>520</ele>
        <time>2024-04-26T21:15:04Z</time>
      </trkpt>
      <trkpt lat="45.6274" lon="4.46309">
        <ele>522</ele>
        <time>2024-04-26T21:16:14Z</time>
      </trkpt>
      <trkpt lat="45.62734" lon="4.46261">
        <ele>520</ele>
        <time>2024-04-26T21:17:00Z</time>
      </trkpt>
      <trkpt lat="45.62662" lon="4.46153">
        <ele>509</ele>
        <time>2024-04-26T21:19:19Z</time>
      </trkpt>
      <trkpt lat="45.62637" lon="4.46099">
        <ele>509</ele>
        <time>2024-04-26T21:20:20Z</time>
      </trkpt>
      <trkpt lat="45.62627" lon="4.4606">
        <ele>509</ele>
        <time>2024-04-26T21:20:58Z</time>
      </trkpt>
      <trkpt lat="45.62622" lon="4.46013">
        <ele>507</ele>
        <time>2024-04-26T21:21:43Z</time>
      </trkpt>
      <trkpt lat="45.62594" lon="4.45953">
        <ele>505</ele>
        <time>2024-04-26T21:22:50Z</time>
      </trkpt>
      <trkpt lat="45.62585" lon="4.45902">
        <ele>505</ele>
        <time>2024-04-26T21:23:39Z</time>
      </trkpt>
      <trkpt lat="45.62581" lon="4.45846">
        <ele>505</ele>
        <time>2024-04-26T21:24:32Z</time>
      </trkpt>
      <trkpt lat="45.62565" lon="4.45808">
        <ele>509</ele>
        <time>2024-04-26T21:25:13Z</time>
      </trkpt>
      <trkpt lat="45.62569" lon="4.45776">
        <ele>509</ele>
        <time>2024-04-26T21:25:43Z</time>
      </trkpt>
      <trkpt lat="45.62574" lon="4.45774">
        <ele>508</ele>
        <time>2024-04-26T21:25:50Z</time>
      </trkpt>
      <trkpt lat="45.62573" lon="4.45769">
        <ele>509</ele>
        <time>2024-04-26T21:25:55Z</time>
      </trkpt>
      <trkpt lat="45.62591" lon="4.45729">
        <ele>508</ele>
        <time>2024-04-26T21:26:40Z</time>
      </trkpt>
      <trkpt lat="45.62614" lon="4.45696">
        <ele>508</ele>
        <time>2024-04-26T21:27:23Z</time>
      </trkpt>
      <trkpt lat="45.62637" lon="4.45609">
        <ele>508</ele>
        <time>2024-04-26T21:28:50Z</time>
      </trkpt>
      <trkpt lat="45.62639" lon="4.45613">
        <ele>508</ele>
        <time>2024-04-26T21:28:54Z</time>
      </trkpt>
      <trkpt lat="45.62641" lon="4.4561">
        <ele>508</ele>
        <time>2024-04-26T21:28:58Z</time>
      </trkpt>
      <trkpt lat="45.62648" lon="4.45538">
        <ele>510</ele>
        <time>2024-04-26T21:30:06Z</time>
      </trkpt>
      <trkpt lat="45.62644" lon="4.45504">
        <ele>512</ele>
        <time>2024-04-26T21:30:38Z</time>
      </trkpt>
      <trkpt lat="45.62619" lon="4.4546">
        <ele>511</ele>
        <time>2024-04-26T21:31:31Z</time>
      </trkpt>
      <trkpt lat="45.62578" lon="4.45407">
        <ele>506</ele>
        <time>2024-04-26T21:32:45Z</time>
      </trkpt>
      <trkpt lat="45.62565" lon="4.45365">
        <ele>507</ele>
        <time>2024-04-26T21:33:28Z</time>
      </trkpt>
      <trkpt lat="45.62527" lon="4.45286">
        <ele>514</ele>
        <time>2024-04-26T21:34:57Z</time>
      </trkpt>
      <trkpt lat="45.62528" lon="4.45248">
        <ele>516</ele>
        <time>2024-04-26T21:35:33Z</time>
      </trkpt>
      <trkpt lat="45.6255" lon="4.45207">
        <ele>517</ele>
        <time>2024-04-26T21:36:21Z</time>
      </trkpt>
      <trkpt lat="45.62551" lon="4.45171">
        <ele>520</ele>
        <time>2024-04-26T21:36:55Z</time>
      </trkpt>
      <trkpt lat="45.62532" lon="4.45099">
        <ele>519</ele>
        <time>2024-04-26T21:38:07Z</time>
      </trkpt>
      <trkpt lat="45.62511" lon="4.45054">
        <ele>516</ele>
        <time>2024-04-26T21:38:57Z</time>
      </trkpt>
      <trkpt lat="45.62495" lon="4.4499">
        <ele>518</ele>
        <time>2024-04-26T21:40:00Z</time>
      </trkpt>
      <trkpt lat="45.62486" lon="4.44975">
        <ele>520</ele>
        <time>2024-04-26T21:40:19Z</time>
      </trkpt>
      <trkpt lat="45.62449" lon="4.44937">
        <ele>519</ele>
        <time>2024-04-26T21:41:20Z</time>
      </trkpt>
      <trkpt lat="45.6238" lon="4.44879">
        <ele>512</ele>
        <time>2024-04-26T21:43:06Z</time>
      </trkpt>
      <trkpt lat="45.62363" lon="4.4486">
        <ele>511</ele>
        <time>2024-04-26T21:43:35Z</time>
      </trkpt>
      <trkpt lat="45.62355" lon="4.44807">
        <ele>511</ele>
        <time>2024-04-26T21:44:26Z</time>
      </trkpt>
      <trkpt lat="45.62358" lon="4.4478">
        <ele>512</ele>
        <time>2024-04-26T21:44:51Z</time>
      </trkpt>
      <trkpt lat="45.62402" lon="4.44622">
        <ele>504</ele>
        <time>2024-04-26T21:47:30Z</time>
      </trkpt>
      <trkpt lat="45.62394" lon="4.4459">
        <ele>501</ele>
        <time>2024-04-26T21:48:02Z</time>
      </trkpt>
      <trkpt lat="45.62365" lon="4.44539">
        <ele>499</ele>
        <time>2024-04-26T21:49:03Z</time>
      </trkpt>
      <trkpt lat="45.62347" lon="4.44511">
        <ele>498</ele>
        <time>2024-04-26T21:49:39Z</time>
      </trkpt>
      <trkpt lat="45.62315" lon="4.44473">
        <ele>496</ele>
        <time>2024-04-26T21:50:34Z</time>
      </trkpt>
      <trkpt lat="45.62331" lon="4.44425">
        <ele>497</ele>
        <time>2024-04-26T21:51:24Z</time>
      </trkpt>
      <trkpt lat="45.62332" lon="4.44388">
        <ele>496</ele>
        <time>2024-04-26T21:51:58Z</time>
      </trkpt>
      <trkpt lat="45.62341" lon="4.44346">
        <ele>495</ele>
        <time>2024-04-26T21:52:39Z</time>
      </trkpt>
      <trkpt lat="45.62351" lon="4.44329">
        <ele>497</ele>
        <time>2024-04-26T21:53:00Z</time>
      </trkpt>
      <trkpt lat="45.62364" lon="4.44284">
        <ele>497</ele>
        <time>2024-04-26T21:53:46Z</time>
      </trkpt>
      <trkpt lat="45.62381" lon="4.44249">
        <ele>498</ele>
        <time>2024-04-26T21:54:25Z</time>
      </trkpt>
      <trkpt lat="45.624" lon="4.44192">
        <ele>498</ele>
        <time>2024-04-26T21:55:24Z</time>
      </trkpt>
      <trkpt lat="45.62402" lon="4.44154">
        <ele>497</ele>
        <time>2024-04-26T21:56:00Z</time>
      </trkpt>
      <trkpt lat="45.62396" lon="4.44076">
        <ele>495</ele>
        <time>2024-04-26T21:57:13Z</time>
      </trkpt>
      <trkpt lat="45.62383" lon="4.4399">
        <ele>493</ele>
        <time>2024-04-26T21:58:35Z</time>
      </trkpt>
      <trkpt lat="45.62398" lon="4.43852">
        <ele>493</ele>
        <time>2024-04-26T22:00:45Z</time>
      </trkpt>
      <trkpt lat="45.62418" lon="4.43783">
        <ele>494</ele>
        <time>2024-04-26T22:01:55Z</time>
      </trkpt>
      <trkpt lat="45.62428" lon="4.43718">
        <ele>494</ele>
        <time>2024-04-26T22:02:57Z</time>
      </trkpt>
      <trkpt lat="45.62453" lon="4.4365">
        <ele>495</ele>
        <time>2024-04-26T22:04:09Z</time>
      </trkpt>
      <trkpt lat="45.62469" lon="4.43566">
        <ele>495</ele>
        <time>2024-04-26T22:05:30Z</time>
      </trkpt>
      <trkpt lat="45.62543" lon="4.43381">
        <ele>502</ele>
        <time>2024-04-26T22:08:49Z</time>
      </trkpt>
      <trkpt lat="45.62557" lon="4.43337">
        <ele>503</ele>
        <time>2024-04-26T22:09:34Z</time>
      </trkpt>
      <trkpt lat="45.62601" lon="4.4314">
        <ele>505</ele>
        <time>2024-04-26T22:12:47Z</time>
      </trkpt>
      <trkpt lat="45.62604" lon="4.43049">
        <ele>504</ele>
        <time>2024-04-26T22:14:12Z</time>
      </trkpt>
      <trkpt lat="45.62593" lon="4.42998">
        <ele>503</ele>
        <time>2024-04-26T22:15:02Z</time>
      </trkpt>
      <trkpt lat="45.62587" lon="4.4294">
        <ele>498</ele>
        <time>2024-04-26T22:15:57Z</time>
      </trkpt>
      <trkpt lat="45.62584" lon="4.42832">
        <ele>494</ele>
        <time>2024-04-26T22:17:38Z</time>
      </trkpt>
      <trkpt lat="45.62576" lon="4.42815">
        <ele>493</ele>
        <time>2024-04-26T22:17:57Z</time>
      </trkpt>
      <trkpt lat="45.62551" lon="4.42794">
        <ele>490</ele>
        <time>2024-04-26T22:18:35Z</time>
      </trkpt>
      <trkpt lat="45.62535" lon="4.42769">
        <ele>487</ele>
        <time>2024-04-26T22:19:07Z</time>
      </trkpt>
      <trkpt lat="45.62517" lon="4.42534">
        <ele>486</ele>
        <time>2024-04-26T22:22:48Z</time>
      </trkpt>
      <trkpt lat="45.62504" lon="4.42499">
        <ele>487</ele>
        <time>2024-04-26T22:23:25Z</time>
      </trkpt>
      <trkpt lat="45.62488" lon="4.42434">
        <ele>489</ele>
        <time>2024-04-26T22:24:29Z</time>
      </trkpt>
      <trkpt lat="45.62462" lon="4.42392">
        <ele>488</ele>
        <time>2024-04-26T22:25:21Z</time>
      </trkpt>
      <trkpt lat="45.62407" lon="4.42323">
        <ele>488</ele>
        <time>2024-04-26T22:26:59Z</time>
      </trkpt>
      <trkpt lat="45.62386" lon="4.4229">
        <ele>488</ele>
        <time>2024-04-26T22:27:41Z</time>
      </trkpt>
      <trkpt lat="45.62374" lon="4.42279">
        <ele>489</ele>
        <time>2024-04-26T22:28:00Z</time>
      </trkpt>
      <trkpt lat="45.62345" lon="4.42267">
        <ele>489</ele>
        <time>2024-04-26T22:28:40Z</time>
      </trkpt>
      <trkpt lat="45.62299" lon="4.42258">
        <ele>489</ele>
        <time>2024-04-26T22:29:42Z</time>
      </trkpt>
      <trkpt lat="45.62264" lon="4.4226">
        <ele>488</ele>
        <time>2024-04-26T22:30:29Z</time>
      </trkpt>
      <trkpt lat="45.62217" lon="4.42272">
        <ele>487</ele>
        <time>2024-04-26T22:31:32Z</time>
      </trkpt>
      <trkpt lat="45.62173" lon="4.42294">
        <ele>485</ele>
        <time>2024-04-26T22:32:35Z</time>
      </trkpt>
      <trkpt lat="45.62156" lon="4.42297">
        <ele>484</ele>
        <time>2024-04-26T22:32:57Z</time>
      </trkpt>
      <trkpt lat="45.62132" lon="4.4229">
        <ele>484</ele>
        <time>2024-04-26T22:33:30Z</time>
      </trkpt>
      <trkpt lat="45.62118" lon="4.42278">
        <ele>485</ele>
        <time>2024-04-26T22:33:52Z</time>
      </trkpt>
      <trkpt lat="45.62063" lon="4.42261">
        <ele>484</ele>
        <time>2024-04-26T22:35:07Z</time>
      </trkpt>
      <trkpt lat="45.62032" lon="4.42282">
        <ele>480</ele>
        <time>2024-04-26T22:35:53Z</time>
      </trkpt>
      <trkpt lat="45.62003" lon="4.42289">
        <ele>477</ele>
        <time>2024-04-26T22:36:32Z</time>
      </trkpt>
      <trkpt lat="45.61994" lon="4.423">
        <ele>476</ele>
        <time>2024-04-26T22:36:48Z</time>
      </trkpt>
      <trkpt lat="45.61961" lon="4.42301">
        <ele>474</ele>
        <time>2024-04-26T22:37:32Z</time>
      </trkpt>
      <trkpt lat="45.61947" lon="4.42296">
        <ele>473</ele>
        <time>2024-04-26T22:37:51Z</time>
      </trkpt>
      <trkpt lat="45.61905" lon="4.42292">
        <ele>471</ele>
        <time>2024-04-26T22:38:47Z</time>
      </trkpt>
      <trkpt lat="45.61885" lon="4.42283">
        <ele>471</ele>
        <time>2024-04-26T22:39:15Z</time>
      </trkpt>
      <trkpt lat="45.61876" lon="4.42285">
        <ele>471</ele>
        <time>2024-04-26T22:39:27Z</time>
      </trkpt>
      <trkpt lat="45.61834" lon="4.4227">
        <ele>469</ele>
        <time>2024-04-26T22:40:25Z</time>
      </trkpt>
      <trkpt lat="45.61807" lon="4.42273">
        <ele>470</ele>
        <time>2024-04-26T22:41:01Z</time>
      </trkpt>
      <trkpt lat="45.61775" lon="4.4224">
        <ele>469</ele>
        <time>2024-04-26T22:41:54Z</time>
      </trkpt>
      <trkpt lat="45.61767" lon="4.42251">
        <ele>469</ele>
        <time>2024-04-26T22:42:09Z</time>
      </trkpt>
      <trkpt lat="45.61762" lon="4.42269">
        <ele>470</ele>
        <time>2024-04-26T22:42:27Z</time>
      </trkpt>
      <trkpt lat="45.61761" lon="4.42297">
        <ele>472</ele>
        <time>2024-04-26T22:42:53Z</time>
      </trkpt>
      <trkpt lat="45.61771" lon="4.42342">
        <ele>474</ele>
        <time>2024-04-26T22:43:37Z</time>
      </trkpt>
      <trkpt lat="45.61768" lon="4.42417">
        <ele>477</ele>
        <time>2024-04-26T22:44:47Z</time>
      </trkpt>
      <trkpt lat="45.61784" lon="4.42476">
        <ele>477</ele>
        <time>2024-04-26T22:45:46Z</time>
      </trkpt>
    </trkseg>
  </trk>
</gpx>